sensor_id;sensor_type;location;lat;lon;timestamp;pressure;altitude;pressure_sealevel;temperature;humidity
9764;BME280;4921;43.214;27.936;2023-05-08T00:00:58;101386.44;;;13.71;100.00
9764;BME280;4921;43.214;27.936;2023-05-08T00:03:25;101388.97;;;13.73;100.00
9764;BME280;4921;43.214;27.936;2023-05-08T00:05:53;101398.22;;;13.67;100.00
9764;BME280;4921;43.214;27.936;2023-05-08T00:08:21;101384.56;;;13.62;100.00
9764;BME280;4921;43.214;27.936;2023-05-08T00:10:48;101391.41;;;13.65;100.00
9764;BME280;4921;43.214;27.936;2023-05-08T00:13:15;101386.13;;;13.65;100.00
9764;BME280;4921;43.214;27.936;2023-05-08T00:15:42;101383.00;;;13.60;100.00
9764;BME280;4921;43.214;27.936;2023-05-08T00:18:09;101387.06;;;13.53;100.00
9764;BME280;4921;43.214;27.936;2023-05-08T00:20:36;101394.78;;;13.56;100.00
9764;BME280;4921;43.214;27.936;2023-05-08T00:23:05;101392.84;;;13.58;100.00
9764;BME280;4921;43.214;27.936;2023-05-08T00:25:31;101395.72;;;13.55;100.00
9764;BME280;4921;43.214;27.936;2023-05-08T00:27:58;101388.16;;;13.50;100.00
9764;BME280;4921;43.214;27.936;2023-05-08T00:30:26;101390.44;;;13.55;100.00
9764;BME280;4921;43.214;27.936;2023-05-08T00:32:53;101390.94;;;13.49;100.00
9764;BME280;4921;43.214;27.936;2023-05-08T00:35:20;101391.28;;;13.44;100.00
9764;BME280;4921;43.214;27.936;2023-05-08T00:37:47;101391.06;;;13.47;100.00
9764;BME280;4921;43.214;27.936;2023-05-08T00:40:15;101388.28;;;13.49;100.00
9764;BME280;4921;43.214;27.936;2023-05-08T00:42:42;101390.44;;;13.44;100.00
9764;BME280;4921;43.214;27.936;2023-05-08T00:45:10;101388.41;;;13.47;100.00
9764;BME280;4921;43.214;27.936;2023-05-08T00:47:37;101387.69;;;13.45;100.00
9764;BME280;4921;43.214;27.936;2023-05-08T00:50:05;101390.09;;;13.37;100.00
9764;BME280;4921;43.214;27.936;2023-05-08T00:52:32;101397.78;;;13.29;100.00
9764;BME280;4921;43.214;27.936;2023-05-08T00:55:00;101390.94;;;13.38;100.00
9764;BME280;4921;43.214;27.936;2023-05-08T00:57:31;101389.00;;;13.51;100.00
9764;BME280;4921;43.214;27.936;2023-05-08T01:00:00;101378.94;;;13.45;100.00
9764;BME280;4921;43.214;27.936;2023-05-08T01:02:29;101386.59;;;13.48;100.00
9764;BME280;4921;43.214;27.936;2023-05-08T01:04:56;101386.84;;;13.45;100.00
9764;BME280;4921;43.214;27.936;2023-05-08T01:07:23;101388.16;;;13.39;100.00
9764;BME280;4921;43.214;27.936;2023-05-08T01:09:50;101388.53;;;13.46;100.00
9764;BME280;4921;43.214;27.936;2023-05-08T01:12:21;101391.88;;;13.48;100.00
9764;BME280;4921;43.214;27.936;2023-05-08T01:15:05;101382.66;;;13.42;100.00
9764;BME280;4921;43.214;27.936;2023-05-08T01:17:43;101375.44;;;13.22;100.00
9764;BME280;4921;43.214;27.936;2023-05-08T01:20:25;101375.09;;;13.38;100.00
9764;BME280;4921;43.214;27.936;2023-05-08T01:32:14;101365.22;;;13.40;100.00
9764;BME280;4921;43.214;27.936;2023-05-08T01:34:48;101365.09;;;13.41;100.00
9764;BME280;4921;43.214;27.936;2023-05-08T01:37:22;101362.22;;;13.33;100.00
9764;BME280;4921;43.214;27.936;2023-05-08T01:39:57;101360.94;;;13.39;100.00
9764;BME280;4921;43.214;27.936;2023-05-08T01:42:42;101355.38;;;13.31;100.00
9764;BME280;4921;43.214;27.936;2023-05-08T01:45:14;101356.84;;;13.24;100.00
9764;BME280;4921;43.214;27.936;2023-05-08T01:47:49;101362.00;;;13.25;100.00
9764;BME280;4921;43.214;27.936;2023-05-08T01:50:20;101354.94;;;13.26;100.00
9764;BME280;4921;43.214;27.936;2023-05-08T01:52:52;101356.94;;;13.33;100.00
9764;BME280;4921;43.214;27.936;2023-05-08T01:55:26;101362.00;;;13.25;100.00
9764;BME280;4921;43.214;27.936;2023-05-08T01:57:57;101369.56;;;13.30;100.00
9764;BME280;4921;43.214;27.936;2023-05-08T02:00:25;101369.09;;;13.36;100.00
9764;BME280;4921;43.214;27.936;2023-05-08T02:02:54;101362.47;;;13.41;100.00
9764;BME280;4921;43.214;27.936;2023-05-08T02:05:23;101356.47;;;13.39;100.00
9764;BME280;4921;43.214;27.936;2023-05-08T02:07:51;101355.75;;;13.37;100.00
9764;BME280;4921;43.214;27.936;2023-05-08T02:10:22;101361.66;;;13.41;100.00
9764;BME280;4921;43.214;27.936;2023-05-08T02:12:51;101366.66;;;13.33;100.00
9764;BME280;4921;43.214;27.936;2023-05-08T02:15:20;101358.75;;;13.33;100.00
9764;BME280;4921;43.214;27.936;2023-05-08T02:17:49;101355.28;;;13.32;100.00
9764;BME280;4921;43.214;27.936;2023-05-08T02:20:20;101370.16;;;13.22;100.00
9764;BME280;4921;43.214;27.936;2023-05-08T02:22:50;101360.94;;;13.28;100.00
9764;BME280;4921;43.214;27.936;2023-05-08T02:25:18;101361.66;;;13.30;100.00
9764;BME280;4921;43.214;27.936;2023-05-08T02:27:46;101350.22;;;13.29;100.00
9764;BME280;4921;43.214;27.936;2023-05-08T02:30:15;101361.66;;;13.30;100.00
9764;BME280;4921;43.214;27.936;2023-05-08T02:32:44;101358.28;;;13.28;100.00
9764;BME280;4921;43.214;27.936;2023-05-08T02:35:13;101361.53;;;13.20;100.00
9764;BME280;4921;43.214;27.936;2023-05-08T02:37:44;101351.44;;;13.14;100.00
9764;BME280;4921;43.214;27.936;2023-05-08T02:40:11;101347.94;;;13.25;100.00
9764;BME280;4921;43.214;27.936;2023-05-08T02:42:39;101353.00;;;13.28;100.00
9764;BME280;4921;43.214;27.936;2023-05-08T02:45:08;101355.03;;;13.35;100.00
9764;BME280;4921;43.214;27.936;2023-05-08T02:47:41;101355.50;;;13.29;100.00
9764;BME280;4921;43.214;27.936;2023-05-08T02:50:15;101357.56;;;13.26;100.00
9764;BME280;4921;43.214;27.936;2023-05-08T02:52:48;101348.44;;;13.19;100.00
9764;BME280;4921;43.214;27.936;2023-05-08T02:55:25;101349.75;;;13.24;100.00
9764;BME280;4921;43.214;27.936;2023-05-08T02:58:05;101357.94;;;13.21;100.00
9764;BME280;4921;43.214;27.936;2023-05-08T03:00:41;101353.00;;;13.17;100.00
9764;BME280;4921;43.214;27.936;2023-05-08T03:03:14;101362.50;;;13.19;100.00
9764;BME280;4921;43.214;27.936;2023-05-08T03:05:48;101358.16;;;13.07;100.00
9764;BME280;4921;43.214;27.936;2023-05-08T03:08:24;101365.25;;;13.07;100.00
9764;BME280;4921;43.214;27.936;2023-05-08T03:10:55;101363.44;;;13.07;100.00
9764;BME280;4921;43.214;27.936;2023-05-08T03:13:24;101372.09;;;13.20;100.00
9764;BME280;4921;43.214;27.936;2023-05-08T03:15:55;101375.72;;;13.30;100.00
9764;BME280;4921;43.214;27.936;2023-05-08T03:18:27;101378.56;;;13.27;100.00
9764;BME280;4921;43.214;27.936;2023-05-08T03:20:58;101373.88;;;13.31;100.00
9764;BME280;4921;43.214;27.936;2023-05-08T03:23:28;101375.72;;;13.30;100.00
9764;BME280;4921;43.214;27.936;2023-05-08T03:25:58;101379.78;;;13.34;100.00
9764;BME280;4921;43.214;27.936;2023-05-08T03:28:26;101379.78;;;13.23;100.00
9764;BME280;4921;43.214;27.936;2023-05-08T03:30:54;101387.47;;;13.15;100.00
9764;BME280;4921;43.214;27.936;2023-05-08T03:33:23;101389.25;;;13.15;100.00
9764;BME280;4921;43.214;27.936;2023-05-08T03:35:52;101378.34;;;13.19;100.00
9764;BME280;4921;43.214;27.936;2023-05-08T03:38:20;101380.38;;;13.27;100.00
9764;BME280;4921;43.214;27.936;2023-05-08T03:40:48;101374.59;;;13.33;100.00
9764;BME280;4921;43.214;27.936;2023-05-08T03:43:17;101383.00;;;13.27;100.00
9764;BME280;4921;43.214;27.936;2023-05-08T03:45:45;101385.56;;;13.17;100.00
9764;BME280;4921;43.214;27.936;2023-05-08T03:48:12;101387.44;;;13.26;100.00
9764;BME280;4921;43.214;27.936;2023-05-08T03:50:40;101389.50;;;13.34;100.00
9764;BME280;4921;43.214;27.936;2023-05-08T03:53:07;101387.94;;;13.42;100.00
9764;BME280;4921;43.214;27.936;2023-05-08T03:55:35;101389.38;;;13.46;100.00
9764;BME280;4921;43.214;27.936;2023-05-08T03:58:09;101389.38;;;13.46;100.00
9764;BME280;4921;43.214;27.936;2023-05-08T04:00:46;101389.00;;;13.51;100.00
9764;BME280;4921;43.214;27.936;2023-05-08T04:03:21;101394.66;;;13.57;100.00
9764;BME280;4921;43.214;27.936;2023-05-08T04:05:54;101396.56;;;13.66;100.00
9764;BME280;4921;43.214;27.936;2023-05-08T04:08:27;101394.13;;;13.74;100.00
9764;BME280;4921;43.214;27.936;2023-05-08T04:11:03;101404.94;;;13.83;100.00
9764;BME280;4921;43.214;27.936;2023-05-08T04:13:36;101400.50;;;13.83;100.00
9764;BME280;4921;43.214;27.936;2023-05-08T04:16:11;101405.06;;;13.81;100.00
9764;BME280;4921;43.214;27.936;2023-05-08T04:18:44;101407.69;;;13.92;100.00
9764;BME280;4921;43.214;27.936;2023-05-08T04:21:14;101407.16;;;14.09;100.00
9764;BME280;4921;43.214;27.936;2023-05-08T04:23:45;101407.81;;;14.22;100.00
9764;BME280;4921;43.214;27.936;2023-05-08T04:26:15;101406.03;;;14.34;100.00
9764;BME280;4921;43.214;27.936;2023-05-08T04:28:45;101408.34;;;14.48;100.00
9764;BME280;4921;43.214;27.936;2023-05-08T04:31:13;101400.47;;;14.78;100.00
9764;BME280;4921;43.214;27.936;2023-05-08T04:33:41;101393.81;;;14.84;100.00
9764;BME280;4921;43.214;27.936;2023-05-08T04:36:10;101391.38;;;14.92;100.00
9764;BME280;4921;43.214;27.936;2023-05-08T04:38:37;101397.00;;;14.98;100.00
9764;BME280;4921;43.214;27.936;2023-05-08T04:41:04;101391.47;;;15.11;100.00
9764;BME280;4921;43.214;27.936;2023-05-08T04:43:31;101393.75;;;15.25;100.00
9764;BME280;4921;43.214;27.936;2023-05-08T04:46:00;101390.16;;;15.26;100.00
9764;BME280;4921;43.214;27.936;2023-05-08T04:48:27;101380.56;;;15.35;100.00
9764;BME280;4921;43.214;27.936;2023-05-08T04:50:56;101390.31;;;15.34;100.00
9764;BME280;4921;43.214;27.936;2023-05-08T04:53:22;101387.72;;;15.13;100.00
9764;BME280;4921;43.214;27.936;2023-05-08T04:55:49;101387.03;;;14.91;100.00
9764;BME280;4921;43.214;27.936;2023-05-08T04:58:16;101386.81;;;15.03;100.00
9764;BME280;4921;43.214;27.936;2023-05-08T05:00:43;101389.38;;;15.14;100.00
9764;BME280;4921;43.214;27.936;2023-05-08T05:03:11;101392.88;;;15.15;100.00
9764;BME280;4921;43.214;27.936;2023-05-08T05:05:38;101389.34;;;15.05;100.00
9764;BME280;4921;43.214;27.936;2023-05-08T05:08:05;101394.50;;;15.06;100.00
9764;BME280;4921;43.214;27.936;2023-05-08T05:10:32;101402.06;;;15.11;100.00
9764;BME280;4921;43.214;27.936;2023-05-08T05:12:59;101397.94;;;15.18;100.00
9764;BME280;4921;43.214;27.936;2023-05-08T05:15:26;101399.66;;;15.28;100.00
9764;BME280;4921;43.214;27.936;2023-05-08T05:17:53;101397.94;;;15.48;100.00
9764;BME280;4921;43.214;27.936;2023-05-08T05:20:21;101398.13;;;15.66;100.00
9764;BME280;4921;43.214;27.936;2023-05-08T05:22:48;101394.44;;;15.48;100.00
9764;BME280;4921;43.214;27.936;2023-05-08T05:25:15;101396.31;;;15.36;100.00
9764;BME280;4921;43.214;27.936;2023-05-08T05:27:42;101396.00;;;15.50;100.00
9764;BME280;4921;43.214;27.936;2023-05-08T05:30:09;101395.72;;;15.53;100.00
9764;BME280;4921;43.214;27.936;2023-05-08T05:32:37;101391.56;;;15.60;100.00
9764;BME280;4921;43.214;27.936;2023-05-08T05:35:04;101399.66;;;15.68;100.00
9764;BME280;4921;43.214;27.936;2023-05-08T05:37:33;101401.72;;;15.55;100.00
9764;BME280;4921;43.214;27.936;2023-05-08T05:40:00;101381.75;;;15.21;100.00
9764;BME280;4921;43.214;27.936;2023-05-08T05:42:27;101389.06;;;15.59;100.00
9764;BME280;4921;43.214;27.936;2023-05-08T05:44:54;101388.94;;;15.70;100.00
9764;BME280;4921;43.214;27.936;2023-05-08T05:47:21;101399.00;;;15.76;100.00
9764;BME280;4921;43.214;27.936;2023-05-08T05:49:48;101404.16;;;15.77;100.00
9764;BME280;4921;43.214;27.936;2023-05-08T05:52:15;101403.59;;;15.83;100.00
9764;BME280;4921;43.214;27.936;2023-05-08T05:54:43;101406.56;;;15.90;100.00
9764;BME280;4921;43.214;27.936;2023-05-08T05:57:11;101408.81;;;15.94;100.00
9764;BME280;4921;43.214;27.936;2023-05-08T05:59:38;101403.94;;;16.09;100.00
9764;BME280;4921;43.214;27.936;2023-05-08T06:02:05;101413.28;;;16.03;100.00
9764;BME280;4921;43.214;27.936;2023-05-08T06:04:35;101409.66;;;15.95;100.00
9764;BME280;4921;43.214;27.936;2023-05-08T06:07:01;101404.50;;;15.93;100.00
9764;BME280;4921;43.214;27.936;2023-05-08T06:09:28;101407.03;;;16.14;100.00
9764;BME280;4921;43.214;27.936;2023-05-08T06:11:57;101407.16;;;16.13;100.00
9764;BME280;4921;43.214;27.936;2023-05-08T06:14:24;101406.75;;;16.17;100.00
9764;BME280;4921;43.214;27.936;2023-05-08T06:16:51;101411.19;;;15.97;100.00
9764;BME280;4921;43.214;27.936;2023-05-08T06:19:18;101420.72;;;15.60;100.00
9764;BME280;4921;43.214;27.936;2023-05-08T06:21:45;101417.03;;;15.82;100.00
9764;BME280;4921;43.214;27.936;2023-05-08T06:24:11;101423.28;;;15.81;100.00
9764;BME280;4921;43.214;27.936;2023-05-08T06:26:39;101423.56;;;15.87;100.00
9764;BME280;4921;43.214;27.936;2023-05-08T06:29:07;101414.66;;;15.49;100.00
9764;BME280;4921;43.214;27.936;2023-05-08T06:31:34;101420.47;;;15.33;100.00
9764;BME280;4921;43.214;27.936;2023-05-08T06:34:01;101420.97;;;15.27;100.00
9764;BME280;4921;43.214;27.936;2023-05-08T06:36:28;101424.38;;;15.39;100.00
9764;BME280;4921;43.214;27.936;2023-05-08T06:38:55;101430.47;;;15.29;100.00
9764;BME280;4921;43.214;27.936;2023-05-08T06:41:22;101436.59;;;15.51;100.00
9764;BME280;4921;43.214;27.936;2023-05-08T06:43:50;101431.72;;;15.46;100.00
9764;BME280;4921;43.214;27.936;2023-05-08T06:46:18;101442.16;;;15.48;100.00
9764;BME280;4921;43.214;27.936;2023-05-08T06:48:46;101439.03;;;15.63;100.00
9764;BME280;4921;43.214;27.936;2023-05-08T06:51:13;101446.00;;;15.64;100.00
9764;BME280;4921;43.214;27.936;2023-05-08T06:53:39;101442.13;;;15.78;100.00
9764;BME280;4921;43.214;27.936;2023-05-08T06:56:07;101450.16;;;15.97;100.00
9764;BME280;4921;43.214;27.936;2023-05-08T06:58:33;101450.22;;;15.76;100.00
9764;BME280;4921;43.214;27.936;2023-05-08T07:01:01;101447.00;;;15.73;100.00
9764;BME280;4921;43.214;27.936;2023-05-08T07:03:29;101437.41;;;15.81;100.00
9764;BME280;4921;43.214;27.936;2023-05-08T07:05:56;101449.34;;;15.66;100.00
9764;BME280;4921;43.214;27.936;2023-05-08T07:08:23;101448.69;;;15.83;100.00
9764;BME280;4921;43.214;27.936;2023-05-08T07:10:50;101436.72;;;15.89;100.00
9764;BME280;4921;43.214;27.936;2023-05-08T07:13:18;101432.00;;;16.02;100.00
9764;BME280;4921;43.214;27.936;2023-05-08T07:15:46;101444.78;;;15.78;100.00
9764;BME280;4921;43.214;27.936;2023-05-08T07:18:13;101438.88;;;15.65;100.00
9764;BME280;4921;43.214;27.936;2023-05-08T07:20:41;101431.22;;;15.41;100.00
9764;BME280;4921;43.214;27.936;2023-05-08T07:23:08;101425.34;;;15.68;100.00
9764;BME280;4921;43.214;27.936;2023-05-08T07:25:35;101412.28;;;15.85;100.00
9764;BME280;4921;43.214;27.936;2023-05-08T07:28:03;101432.25;;;15.89;100.00
9764;BME280;4921;43.214;27.936;2023-05-08T07:30:30;101423.41;;;15.70;100.00
9764;BME280;4921;43.214;27.936;2023-05-08T07:32:58;101426.63;;;15.73;100.00
9764;BME280;4921;43.214;27.936;2023-05-08T07:35:25;101427.53;;;15.93;100.00
9764;BME280;4921;43.214;27.936;2023-05-08T07:37:53;101426.56;;;16.13;100.00
9764;BME280;4921;43.214;27.936;2023-05-08T07:40:20;101439.00;;;16.13;100.00
9764;BME280;4921;43.214;27.936;2023-05-08T07:42:47;101439.69;;;15.95;100.00
9764;BME280;4921;43.214;27.936;2023-05-08T07:45:14;101438.72;;;16.16;100.00
9764;BME280;4921;43.214;27.936;2023-05-08T07:47:48;101435.38;;;16.14;100.00
9764;BME280;4921;43.214;27.936;2023-05-08T07:50:16;101442.91;;;16.09;100.00
9764;BME280;4921;43.214;27.936;2023-05-08T07:52:43;101444.19;;;16.24;100.00
9764;BME280;4921;43.214;27.936;2023-05-08T07:55:11;101439.59;;;16.45;100.00
9764;BME280;4921;43.214;27.936;2023-05-08T07:57:40;101444.50;;;16.49;100.00
9764;BME280;4921;43.214;27.936;2023-05-08T08:00:09;101445.59;;;16.47;100.00
9764;BME280;4921;43.214;27.936;2023-05-08T08:02:36;101444.88;;;16.35;100.00
9764;BME280;4921;43.214;27.936;2023-05-08T08:05:03;101435.78;;;16.09;100.00
9764;BME280;4921;43.214;27.936;2023-05-08T08:07:30;101436.94;;;16.26;100.00
9764;BME280;4921;43.214;27.936;2023-05-08T08:09:58;101434.13;;;16.08;100.00
9764;BME280;4921;43.214;27.936;2023-05-08T08:12:27;101432.84;;;16.22;100.00
9764;BME280;4921;43.214;27.936;2023-05-08T08:14:54;101431.06;;;15.63;100.00
9764;BME280;4921;43.214;27.936;2023-05-08T08:17:21;101432.19;;;15.40;100.00
9764;BME280;4921;43.214;27.936;2023-05-08T08:19:48;101439.28;;;15.60;100.00
9764;BME280;4921;43.214;27.936;2023-05-08T08:22:15;101435.16;;;15.77;100.00
9764;BME280;4921;43.214;27.936;2023-05-08T08:24:41;101429.81;;;15.67;100.00
9764;BME280;4921;43.214;27.936;2023-05-08T08:27:08;101440.47;;;15.47;100.00
9764;BME280;4921;43.214;27.936;2023-05-08T08:29:37;101439.41;;;15.28;100.00
9764;BME280;4921;43.214;27.936;2023-05-08T08:32:04;101429.09;;;15.05;100.00
9764;BME280;4921;43.214;27.936;2023-05-08T08:34:32;101427.56;;;15.12;100.00
9764;BME280;4921;43.214;27.936;2023-05-08T08:36:59;101422.25;;;15.33;100.00
9764;BME280;4921;43.214;27.936;2023-05-08T08:39:26;101428.25;;;15.35;100.00
9764;BME280;4921;43.214;27.936;2023-05-08T08:41:53;101416.66;;;15.26;100.00
9764;BME280;4921;43.214;27.936;2023-05-08T08:44:20;101417.22;;;15.29;100.00
9764;BME280;4921;43.214;27.936;2023-05-08T08:46:51;101421.06;;;15.16;100.00
9764;BME280;4921;43.214;27.936;2023-05-08T08:49:24;101432.66;;;14.94;100.00
9764;BME280;4921;43.214;27.936;2023-05-08T08:51:58;101411.94;;;14.79;100.00
9764;BME280;4921;43.214;27.936;2023-05-08T08:54:28;101399.75;;;14.97;100.00
9764;BME280;4921;43.214;27.936;2023-05-08T08:56:56;101413.69;;;15.19;100.00
9764;BME280;4921;43.214;27.936;2023-05-08T08:59:26;101415.88;;;15.14;100.00
9764;BME280;4921;43.214;27.936;2023-05-08T09:01:58;101412.50;;;15.03;100.00
9764;BME280;4921;43.214;27.936;2023-05-08T09:04:26;101407.94;;;15.14;100.00
9764;BME280;4921;43.214;27.936;2023-05-08T09:06:54;101410.09;;;15.30;100.00
9764;BME280;4921;43.214;27.936;2023-05-08T09:09:22;101401.84;;;15.23;100.00
9764;BME280;4921;43.214;27.936;2023-05-08T09:11:51;101398.72;;;15.09;100.00
9764;BME280;4921;43.214;27.936;2023-05-08T09:14:18;101405.59;;;15.21;100.00
9764;BME280;4921;43.214;27.936;2023-05-08T09:16:45;101407.00;;;15.25;100.00
9764;BME280;4921;43.214;27.936;2023-05-08T09:19:14;101398.13;;;15.36;100.00
9764;BME280;4921;43.214;27.936;2023-05-08T09:21:41;101399.97;;;15.35;100.00
9764;BME280;4921;43.214;27.936;2023-05-08T09:24:08;101389.66;;;15.42;100.00
9764;BME280;4921;43.214;27.936;2023-05-08T09:26:36;101405.56;;;15.72;100.00
9764;BME280;4921;43.214;27.936;2023-05-08T09:29:11;101391.84;;;15.76;100.00
9764;BME280;4921;43.214;27.936;2023-05-08T09:31:40;101399.84;;;15.86;100.00
9764;BME280;4921;43.214;27.936;2023-05-08T09:34:07;101417.03;;;15.91;100.00
9764;BME280;4921;43.214;27.936;2023-05-08T09:36:36;101417.66;;;15.65;100.00
9764;BME280;4921;43.214;27.936;2023-05-08T09:39:09;101411.25;;;15.67;100.00
9764;BME280;4921;43.214;27.936;2023-05-08T09:41:37;101418.13;;;15.79;100.00
9764;BME280;4921;43.214;27.936;2023-05-08T09:44:04;101409.66;;;15.95;100.00
9764;BME280;4921;43.214;27.936;2023-05-08T09:46:32;101402.44;;;16.26;100.00
9764;BME280;4921;43.214;27.936;2023-05-08T09:49:02;101411.06;;;16.37;100.00
9764;BME280;4921;43.214;27.936;2023-05-08T09:51:30;101405.09;;;16.26;100.00
9764;BME280;4921;43.214;27.936;2023-05-08T09:53:59;101411.63;;;16.22;100.00
9764;BME280;4921;43.214;27.936;2023-05-08T09:56:34;101417.91;;;16.40;100.00
9764;BME280;4921;43.214;27.936;2023-05-08T09:59:02;101418.34;;;16.35;100.00
9764;BME280;4921;43.214;27.936;2023-05-08T10:01:32;101418.06;;;16.29;100.00
9764;BME280;4921;43.214;27.936;2023-05-08T10:03:59;101398.63;;;15.99;100.00
9764;BME280;4921;43.214;27.936;2023-05-08T10:06:27;101410.09;;;16.10;100.00
9764;BME280;4921;43.214;27.936;2023-05-08T10:09:12;101414.84;;;16.35;100.00
9764;BME280;4921;43.214;27.936;2023-05-08T10:11:41;101414.84;;;16.06;100.00
9764;BME280;4921;43.214;27.936;2023-05-08T10:14:08;101419.59;;;16.12;100.00
9764;BME280;4921;43.214;27.936;2023-05-08T10:16:40;101409.97;;;16.21;100.00
9764;BME280;4921;43.214;27.936;2023-05-08T10:19:12;101412.34;;;16.33;100.00
9764;BME280;4921;43.214;27.936;2023-05-08T10:21:41;101422.25;;;16.12;100.00
9764;BME280;4921;43.214;27.936;2023-05-08T10:24:15;101420.94;;;15.87;100.00
9764;BME280;4921;43.214;27.936;2023-05-08T10:26:50;101406.75;;;15.58;100.00
9764;BME280;4921;43.214;27.936;2023-05-08T10:29:21;101412.97;;;15.87;100.00
9764;BME280;4921;43.214;27.936;2023-05-08T10:31:53;101414.28;;;16.12;100.00
9764;BME280;4921;43.214;27.936;2023-05-08T10:34:22;101412.88;;;16.18;100.00
9764;BME280;4921;43.214;27.936;2023-05-08T10:36:53;101403.94;;;15.99;100.00
9764;BME280;4921;43.214;27.936;2023-05-08T10:39:21;101406.16;;;16.14;100.00
9764;BME280;4921;43.214;27.936;2023-05-08T10:41:49;101399.34;;;16.21;100.00
9764;BME280;4921;43.214;27.936;2023-05-08T10:44:17;101389.69;;;16.00;100.00
9764;BME280;4921;43.214;27.936;2023-05-08T10:46:50;101391.47;;;15.81;100.00
9764;BME280;4921;43.214;27.936;2023-05-08T10:49:24;101394.66;;;15.75;100.00
9764;BME280;4921;43.214;27.936;2023-05-08T10:52:06;101391.50;;;16.10;100.00
9764;BME280;4921;43.214;27.936;2023-05-08T10:57:37;101399.16;;;15.84;100.00
9764;BME280;4921;43.214;27.936;2023-05-08T11:00:06;101401.53;;;15.96;100.00
9764;BME280;4921;43.214;27.936;2023-05-08T11:02:33;101399.56;;;15.79;100.00
9764;BME280;4921;43.214;27.936;2023-05-08T11:05:20;101399.66;;;15.59;100.00
9764;BME280;4921;43.214;27.936;2023-05-08T11:07:54;101401.25;;;15.80;100.00
9764;BME280;4921;43.214;27.936;2023-05-08T11:10:29;101403.06;;;15.80;100.00
9764;BME280;4921;43.214;27.936;2023-05-08T11:12:57;101408.13;;;16.02;100.00
9764;BME280;4921;43.214;27.936;2023-05-08T11:15:35;101409.50;;;15.87;100.00
9764;BME280;4921;43.214;27.936;2023-05-08T11:18:03;101406.88;;;16.06;100.00
9764;BME280;4921;43.214;27.936;2023-05-08T11:20:38;101390.09;;;16.06;100.00
9764;BME280;4921;43.214;27.936;2023-05-08T11:23:27;101401.16;;;16.11;100.00
9764;BME280;4921;43.214;27.936;2023-05-08T11:26:03;101404.59;;;15.92;100.00
9764;BME280;4921;43.214;27.936;2023-05-08T11:28:30;101407.66;;;15.78;100.00
9764;BME280;4921;43.214;27.936;2023-05-08T11:31:02;101404.41;;;15.35;100.00
9764;BME280;4921;43.214;27.936;2023-05-08T11:33:30;101405.81;;;15.39;100.00
9764;BME280;4921;43.214;27.936;2023-05-08T11:35:59;101411.31;;;15.47;100.00
9764;BME280;4921;43.214;27.936;2023-05-08T11:38:33;101400.34;;;15.61;100.00
9764;BME280;4921;43.214;27.936;2023-05-08T11:41:03;101414.81;;;15.96;100.00
9764;BME280;4921;43.214;27.936;2023-05-08T11:44:08;101412.44;;;16.03;100.00
9764;BME280;4921;43.214;27.936;2023-05-08T11:46:41;101413.06;;;15.67;100.00
9764;BME280;4921;43.214;27.936;2023-05-08T11:49:13;101405.00;;;15.78;100.00
9764;BME280;4921;43.214;27.936;2023-05-08T11:51:41;101392.25;;;15.62;100.00
9764;BME280;4921;43.214;27.936;2023-05-08T11:54:16;101404.13;;;15.68;100.00
9764;BME280;4921;43.214;27.936;2023-05-08T11:56:46;101406.69;;;15.98;100.00
9764;BME280;4921;43.214;27.936;2023-05-08T11:59:14;101408.97;;;16.12;100.00
9764;BME280;4921;43.214;27.936;2023-05-08T12:01:41;101403.53;;;16.04;100.00
9764;BME280;4921;43.214;27.936;2023-05-08T12:04:10;101396.09;;;15.88;100.00
9764;BME280;4921;43.214;27.936;2023-05-08T12:06:39;101390.66;;;16.09;100.00
9764;BME280;4921;43.214;27.936;2023-05-08T12:09:11;101389.84;;;16.18;100.00
9764;BME280;4921;43.214;27.936;2023-05-08T12:11:38;101394.16;;;16.29;100.00
9764;BME280;4921;43.214;27.936;2023-05-08T12:14:07;101401.56;;;16.44;100.00
9764;BME280;4921;43.214;27.936;2023-05-08T12:16:34;101399.59;;;16.18;100.00
9764;BME280;4921;43.214;27.936;2023-05-08T12:19:03;101394.31;;;16.08;100.00
9764;BME280;4921;43.214;27.936;2023-05-08T12:21:30;101398.50;;;16.30;100.00
9764;BME280;4921;43.214;27.936;2023-05-08T12:23:57;101398.50;;;16.30;100.00
9764;BME280;4921;43.214;27.936;2023-05-08T12:26:24;101391.91;;;16.05;100.00
9764;BME280;4921;43.214;27.936;2023-05-08T12:28:54;101379.88;;;15.82;100.00
9764;BME280;4921;43.214;27.936;2023-05-08T12:31:23;101395.00;;;16.10;100.00
9764;BME280;4921;43.214;27.936;2023-05-08T12:33:50;101396.66;;;16.01;100.00
9764;BME280;4921;43.214;27.936;2023-05-08T12:36:18;101381.03;;;16.08;100.00
9764;BME280;4921;43.214;27.936;2023-05-08T12:38:45;101385.09;;;16.12;100.00
9764;BME280;4921;43.214;27.936;2023-05-08T12:41:11;101380.88;;;16.10;100.00
9764;BME280;4921;43.214;27.936;2023-05-08T12:43:38;101377.94;;;16.03;100.00
9764;BME280;4921;43.214;27.936;2023-05-08T12:46:10;101372.66;;;16.13;100.00
9764;BME280;4921;43.214;27.936;2023-05-08T12:48:40;101376.56;;;16.18;100.00
9764;BME280;4921;43.214;27.936;2023-05-08T12:51:09;101374.91;;;16.17;100.00
9764;BME280;4921;43.214;27.936;2023-05-08T12:53:36;101372.94;;;16.00;100.00
9764;BME280;4921;43.214;27.936;2023-05-08T12:56:04;101382.94;;;15.77;100.00
9764;BME280;4921;43.214;27.936;2023-05-08T12:58:32;101380.84;;;15.81;100.00
9764;BME280;4921;43.214;27.936;2023-05-08T13:01:04;101379.44;;;15.77;100.00
9764;BME280;4921;43.214;27.936;2023-05-08T13:03:32;101371.59;;;15.66;100.00
9764;BME280;4921;43.214;27.936;2023-05-08T13:06:00;101384.75;;;15.67;100.00
9764;BME280;4921;43.214;27.936;2023-05-08T13:08:31;101380.69;;;15.63;100.00
9764;BME280;4921;43.214;27.936;2023-05-08T13:10:59;101370.06;;;15.54;100.00
9764;BME280;4921;43.214;27.936;2023-05-08T13:13:29;101377.91;;;15.65;100.00